createdAt,value
2023-03-18T00:02:09.315Z,101011.62
2023-03-18T00:04:38.111Z,101010.70
2023-03-18T00:07:07.907Z,101015.80
2023-03-18T00:09:37.300Z,101016.59
2023-03-18T00:12:10.145Z,101011.34
2023-03-18T00:14:39.343Z,101006.15
2023-03-18T00:17:09.357Z,101008.70
2023-03-18T00:19:38.440Z,101009.45
2023-03-18T00:22:12.095Z,101009.42
2023-03-18T00:24:41.311Z,101008.50
2023-03-18T00:27:10.235Z,101005.06
2023-03-18T00:29:40.153Z,101009.30
2023-03-18T00:32:10.596Z,100999.81
2023-03-18T00:34:40.408Z,100997.20
2023-03-18T00:37:18.546Z,100992.87
2023-03-18T00:39:48.052Z,100993.64
2023-03-18T00:42:17.157Z,100984.12
2023-03-18T00:44:46.523Z,100982.37
2023-03-18T00:47:16.059Z,100984.91
2023-03-18T00:49:45.314Z,100980.55
2023-03-18T00:52:14.846Z,100976.16
2023-03-18T00:54:43.644Z,100973.55
2023-03-18T00:57:13.133Z,100969.19
2023-03-18T00:59:42.205Z,100975.20
2023-03-18T01:02:11.419Z,100968.30
2023-03-18T01:04:40.612Z,100964.80
2023-03-18T01:07:11.250Z,100968.17
2023-03-18T01:09:40.180Z,100964.73
2023-03-18T01:12:11.339Z,100959.52
2023-03-18T01:14:41.383Z,100958.66
2023-03-18T01:17:11.724Z,100956.08
2023-03-18T01:19:40.559Z,100950.03
2023-03-18T01:22:10.008Z,100944.02
2023-03-18T01:24:44.564Z,100944.85
2023-03-18T01:27:14.244Z,100942.27
2023-03-18T01:29:46.041Z,100943.99
2023-03-18T01:32:18.869Z,100943.99
2023-03-18T01:34:47.635Z,100940.52
2023-03-18T01:37:16.531Z,100943.16
2023-03-18T01:39:48.534Z,100947.42
2023-03-18T01:42:22.138Z,100943.10
2023-03-18T02:01:08.869Z,100942.94
2023-03-18T02:03:42.752Z,100936.86
2023-03-18T02:06:13.492Z,100938.51
2023-03-18T02:08:42.805Z,100935.08
2023-03-18T02:11:13.178Z,100936.76
2023-03-18T02:13:45.450Z,100934.16
2023-03-18T02:16:19.713Z,100928.97
2023-03-18T02:18:53.910Z,100928.04
2023-03-18T02:21:37.325Z,100934.84
2023-03-18T02:24:14.677Z,100941.67
2023-03-18T02:26:52.185Z,100932.16
2023-03-18T02:29:28.095Z,100936.39
2023-03-18T02:32:04.263Z,100936.36
2023-03-18T02:34:34.942Z,100935.43
2023-03-18T02:37:04.297Z,100935.39
2023-03-18T02:39:33.801Z,100926.70
2023-03-18T02:42:03.929Z,100925.72
2023-03-18T02:44:39.221Z,100934.30
2023-03-18T02:47:44.301Z,100929.05
2023-03-18T02:50:13.226Z,100927.30
2023-03-18T02:52:42.864Z,100914.38
2023-03-18T02:55:12.314Z,100928.08
2023-03-18T02:57:41.270Z,100917.72
2023-03-18T03:00:13.141Z,100918.50
2023-03-18T03:02:42.587Z,100922.73
2023-03-18T03:05:13.706Z,100914.97
2023-03-18T03:07:42.750Z,100902.92
2023-03-18T03:10:13.689Z,100906.31
2023-03-18T03:12:44.940Z,100906.28
2023-03-18T03:15:13.932Z,100907.04
2023-03-18T03:17:47.901Z,100897.64
2023-03-18T03:20:19.699Z,100902.72
2023-03-18T03:22:49.901Z,100900.92
2023-03-18T03:25:20.061Z,100897.42
2023-03-18T03:27:49.773Z,100899.97
2023-03-18T03:30:20.481Z,100897.39
2023-03-18T03:32:51.140Z,100905.11
2023-03-18T03:35:20.932Z,100895.64
2023-03-18T03:37:50.185Z,100883.59
2023-03-18T03:40:21.236Z,100894.78
2023-03-18T03:42:53.343Z,100898.17
2023-03-18T03:45:22.485Z,100894.72
2023-03-18T03:47:53.242Z,100900.75
2023-03-18T03:50:23.645Z,100894.68
2023-03-18T03:52:52.905Z,100898.08
2023-03-18T03:55:23.289Z,100906.62
2023-03-18T03:57:52.511Z,100908.33
2023-03-18T04:00:23.843Z,100908.26
2023-03-18T04:02:54.182Z,100915.12
2023-03-18T04:05:24.783Z,100915.12
2023-03-18T04:07:59.324Z,100909.91
2023-03-18T04:10:39.765Z,100907.26
2023-03-18T04:13:12.666Z,100914.08
2023-03-18T04:15:42.674Z,100912.33
2023-03-18T04:18:16.492Z,100914.05
2023-03-18T04:20:45.939Z,100908.86
2023-03-18T04:23:21.235Z,100902.83
2023-03-18T04:25:50.253Z,100907.97
2023-03-18T04:28:20.206Z,100912.19
2023-03-18T04:30:50.522Z,100927.58
2023-03-18T04:33:20.670Z,100927.55
2023-03-18T04:35:50.350Z,100918.11
2023-03-18T04:38:20.464Z,100924.97
2023-03-18T04:40:50.801Z,100932.62
2023-03-18T04:43:20.765Z,100928.37
2023-03-18T04:45:54.013Z,100932.58
2023-03-18T04:48:26.818Z,100917.93
2023-03-18T04:50:57.748Z,100930.79
2023-03-18T04:53:30.367Z,100935.08
2023-03-18T04:55:59.753Z,100938.50
2023-03-18T04:58:34.908Z,100936.80
2023-03-18T05:01:16.523Z,100926.55
2023-03-18T05:03:46.862Z,100923.15
2023-03-18T05:06:22.859Z,100924.08
2023-03-18T05:09:01.625Z,100921.55
2023-03-18T05:11:34.677Z,100915.65
2023-03-18T05:14:11.521Z,100923.52
2023-03-18T05:16:43.763Z,100923.66
2023-03-18T05:19:13.494Z,100924.66
2023-03-18T05:21:50.347Z,100921.37
2023-03-18T05:24:21.628Z,100914.69
2023-03-18T05:26:54.214Z,100908.86
2023-03-18T05:29:25.922Z,100904.70
2023-03-18T05:32:12.540Z,100902.34
2023-03-18T05:34:42.417Z,100907.66
2023-03-18T05:37:14.011Z,100902.72
2023-03-18T05:39:46.632Z,100903.70
2023-03-18T05:42:18.530Z,100903.02
2023-03-18T05:44:49.253Z,100901.50
2023-03-18T05:47:20.964Z,100906.91
2023-03-18T05:50:15.465Z,100901.95
2023-03-18T05:52:44.879Z,100901.31
2023-03-18T05:55:20.204Z,100902.49
2023-03-18T05:57:49.194Z,100911.39
2023-03-18T06:00:20.568Z,100910.81
2023-03-18T06:02:51.842Z,100914.64
2023-03-18T06:05:21.832Z,100905.56
2023-03-18T06:07:54.366Z,100902.52
2023-03-18T06:10:24.637Z,100894.37
2023-03-18T06:12:55.236Z,100892.95
2023-03-18T06:15:25.195Z,100888.86
2023-03-18T06:17:54.072Z,100885.68
2023-03-18T06:20:23.101Z,100894.97
2023-03-18T06:22:52.803Z,100884.37
2023-03-18T06:25:23.450Z,100886.97
2023-03-18T06:27:53.273Z,100885.23
2023-03-18T06:30:25.468Z,100892.58
2023-03-18T06:32:54.562Z,100892.05
2023-03-18T06:35:27.719Z,100892.02
2023-03-18T06:37:57.447Z,100888.41
2023-03-18T06:40:26.578Z,100887.44
2023-03-18T06:42:56.335Z,100898.50
2023-03-18T06:45:34.912Z,100892.34
2023-03-18T06:48:09.865Z,100889.56
2023-03-18T06:50:42.553Z,100898.02
2023-03-18T06:53:17.520Z,100891.98
2023-03-18T06:55:47.068Z,100889.61
2023-03-18T06:58:17.048Z,100903.64
2023-03-18T07:00:50.634Z,100900.26
2023-03-18T07:03:25.539Z,100896.09
2023-03-18T07:05:58.245Z,100894.58
2023-03-18T07:08:29.126Z,100902.47
2023-03-18T07:10:57.985Z,100898.98
2023-03-18T07:13:28.148Z,100899.72
2023-03-18T07:15:58.199Z,100908.30
2023-03-18T07:18:27.977Z,100909.20
2023-03-18T07:20:56.925Z,100909.39
2023-03-18T07:23:26.894Z,100903.35
2023-03-18T07:25:59.495Z,100902.44
2023-03-18T07:28:28.508Z,100907.55
2023-03-18T07:30:57.616Z,100911.86
2023-03-18T07:33:26.611Z,100910.90
2023-03-18T07:35:56.321Z,100908.92
2023-03-18T07:38:26.565Z,100911.13
2023-03-18T07:40:56.027Z,100911.69
2023-03-18T07:43:25.135Z,100909.73
2023-03-18T07:45:55.102Z,100913.75
2023-03-18T07:48:24.376Z,100916.64
2023-03-18T07:50:56.417Z,100905.29
2023-03-18T07:53:25.708Z,100900.41
2023-03-18T07:55:55.135Z,100899.83
2023-03-18T07:58:25.190Z,100900.91
2023-03-18T08:00:54.997Z,100902.64
2023-03-18T08:03:24.196Z,100897.17
2023-03-18T08:05:56.131Z,100890.38
2023-03-18T08:08:25.930Z,100889.08
2023-03-18T08:10:59.824Z,100895.10
2023-03-18T08:13:28.530Z,100891.45
2023-03-18T08:15:58.035Z,100896.19
2023-03-18T08:18:27.253Z,100886.16
2023-03-18T08:20:56.293Z,100892.41
2023-03-18T08:23:25.273Z,100891.57
2023-03-18T08:25:54.216Z,100884.20
2023-03-18T08:28:23.145Z,100881.58
2023-03-18T08:30:55.830Z,100876.02
2023-03-18T08:33:25.325Z,100878.98
2023-03-18T08:35:55.358Z,100876.35
2023-03-18T08:38:24.656Z,100877.09
2023-03-18T08:40:53.636Z,100874.31
2023-03-18T08:43:22.893Z,100887.20
2023-03-18T08:45:53.515Z,100887.16
2023-03-18T08:48:24.524Z,100883.80
2023-03-18T08:50:54.157Z,100875.36
2023-03-18T08:57:02.530Z,100872.78
2023-03-18T08:59:31.833Z,100872.17
2023-03-18T09:02:00.556Z,100875.77
2023-03-18T09:04:30.933Z,100867.20
2023-03-18T09:07:01.037Z,100861.07
2023-03-18T09:09:43.492Z,100865.20
2023-03-18T09:12:14.386Z,100850.89
2023-03-18T09:14:44.989Z,100851.38
2023-03-18T09:17:15.111Z,100840.39
2023-03-18T09:19:45.956Z,100844.92
2023-03-18T09:22:33.419Z,100846.91
2023-03-18T09:25:02.630Z,100845.25
2023-03-18T09:27:31.656Z,100842.12
2023-03-18T09:30:00.868Z,100841.39
2023-03-18T09:32:32.594Z,100830.83
2023-03-18T09:35:01.763Z,100832.02
2023-03-18T09:37:31.688Z,100838.66
2023-03-18T09:40:00.961Z,100835.44
2023-03-18T09:42:47.349Z,100833.11
2023-03-18T09:45:24.741Z,100842.58
2023-03-18T09:48:11.463Z,100836.39
2023-03-18T09:50:47.408Z,100833.44
2023-03-18T09:53:23.948Z,100830.79
2023-03-18T09:56:00.559Z,100831.49
2023-03-18T09:58:44.814Z,100840.08
2023-03-18T10:01:21.168Z,100830.95
2023-03-18T10:03:56.425Z,100824.87
2023-03-18T10:06:27.817Z,100826.07
2023-03-18T10:09:09.939Z,100824.44
2023-03-18T10:11:44.315Z,100830.63
2023-03-18T10:14:37.945Z,100820.82
2023-03-18T10:17:16.464Z,100822.41
2023-03-18T10:19:51.365Z,100817.30
2023-03-18T10:22:43.955Z,100816.61
2023-03-18T10:25:23.634Z,100810.52
2023-03-18T10:28:09.930Z,100813.68
2023-03-18T10:30:53.124Z,100809.38
2023-03-18T10:33:29.140Z,100811.22
2023-03-18T10:36:05.816Z,100807.75
2023-03-18T10:38:39.175Z,100814.98
2023-03-18T10:41:21.173Z,100798.45
2023-03-18T10:43:54.625Z,100801.12
2023-03-18T10:46:26.332Z,100803.66
2023-03-18T10:49:00.536Z,100799.50
2023-03-18T10:51:36.981Z,100795.97
2023-03-18T10:54:12.964Z,100793.20
2023-03-18T10:56:45.413Z,100781.86
2023-03-18T10:59:18.006Z,100785.18
2023-03-18T11:01:54.194Z,100778.41
2023-03-18T11:04:28.011Z,100779.59
2023-03-18T11:07:00.271Z,100776.87
2023-03-18T11:09:35.716Z,100767.02
2023-03-18T11:12:18.885Z,100771.12
2023-03-18T11:14:50.088Z,100760.73
2023-03-18T11:17:26.844Z,100774.05
2023-03-18T11:20:07.604Z,100766.43
2023-03-18T11:22:47.578Z,100764.75
2023-03-18T11:25:22.765Z,100765.54
2023-03-18T11:27:57.593Z,100761.28
2023-03-18T11:30:36.609Z,100753.31
2023-03-18T11:33:14.445Z,100761.12
2023-03-18T11:35:50.177Z,100755.89
2023-03-18T11:38:21.440Z,100755.99
2023-03-18T11:40:51.647Z,100746.24
2023-03-18T11:43:23.024Z,100746.14
2023-03-18T11:45:57.480Z,100742.61
2023-03-18T11:48:36.251Z,100743.50
2023-03-18T11:51:27.177Z,100740.84
2023-03-18T11:54:14.158Z,100740.99
2023-03-18T11:56:46.701Z,100734.70
2023-03-18T11:59:36.123Z,100733.59
2023-03-18T12:02:38.189Z,100750.96
2023-03-18T12:05:47.682Z,100741.42
2023-03-18T12:08:27.590Z,100738.17
2023-03-18T12:11:07.500Z,100733.75
2023-03-18T12:13:49.698Z,100734.00
2023-03-18T12:16:36.077Z,100734.27
2023-03-18T12:19:26.126Z,100731.75
2023-03-18T12:22:30.951Z,100731.75
2023-03-18T12:25:13.770Z,100724.95
2023-03-18T12:27:53.488Z,100729.52
2023-03-18T12:30:39.003Z,100725.41
2023-03-18T12:33:19.439Z,100724.71
2023-03-18T12:35:58.021Z,100717.64
2023-03-18T12:38:59.301Z,100720.12
2023-03-18T12:41:37.313Z,100709.69
2023-03-18T12:44:25.237Z,100708.00
2023-03-18T12:47:01.480Z,100704.45
2023-03-18T12:49:37.366Z,100701.02
2023-03-18T12:52:11.181Z,100707.11
2023-03-18T12:54:46.004Z,100702.86
2023-03-18T12:57:23.368Z,100701.30
2023-03-18T12:59:57.854Z,100694.28
2023-03-18T13:02:44.407Z,100702.15
2023-03-18T13:05:28.825Z,100689.89
2023-03-18T13:08:10.540Z,100693.30
2023-03-18T13:10:41.886Z,100690.59
2023-03-18T13:13:13.929Z,100697.47
2023-03-18T13:15:48.973Z,100693.17
2023-03-18T13:18:23.164Z,100691.44
2023-03-18T13:20:57.142Z,100689.71
2023-03-18T13:23:39.301Z,100689.71
2023-03-18T13:26:21.720Z,100687.22
2023-03-18T13:29:09.766Z,100689.14
2023-03-18T13:31:54.902Z,100686.66
2023-03-18T13:35:04.548Z,100688.48
2023-03-18T13:37:58.226Z,100680.84
2023-03-18T13:40:43.040Z,100677.52
2023-03-18T13:43:17.723Z,100674.13
2023-03-18T13:45:49.695Z,100667.24
2023-03-18T13:48:21.862Z,100657.70
2023-03-18T13:50:52.181Z,100675.27
2023-03-18T13:53:27.025Z,100660.44
2023-03-18T13:56:05.618Z,100670.08
2023-03-18T13:58:44.421Z,100664.92
2023-03-18T14:01:28.686Z,100663.19
2023-03-18T14:03:59.762Z,100662.30
2023-03-18T14:06:52.416Z,100664.92
2023-03-18T14:09:51.585Z,100655.34
2023-03-18T14:12:40.434Z,100651.91
2023-03-18T14:15:36.348Z,100650.14
2023-03-18T14:18:28.654Z,100642.20
2023-03-18T14:21:04.250Z,100642.05
2023-03-18T14:23:41.887Z,100640.18
2023-03-18T14:26:23.849Z,100642.75
2023-03-18T14:29:03.040Z,100638.36
2023-03-18T14:31:49.838Z,100634.77
2023-03-18T14:34:28.859Z,100632.16
2023-03-18T14:37:27.429Z,100631.35
2023-03-18T14:40:01.739Z,100635.75
2023-03-18T14:42:43.853Z,100634.09
2023-03-18T14:45:23.593Z,100634.18
2023-03-18T14:47:54.243Z,100625.57
2023-03-18T14:50:35.307Z,100625.66
2023-03-18T14:53:16.458Z,100628.40
2023-03-18T14:55:45.848Z,100623.25
2023-03-18T14:58:17.208Z,100623.41
2023-03-18T15:00:49.557Z,100621.75
2023-03-18T15:03:23.784Z,100620.10
2023-03-18T15:06:00.113Z,100615.80
2023-03-18T15:08:44.840Z,100619.42
2023-03-18T15:11:18.887Z,100622.98
2023-03-18T15:13:47.791Z,100626.56
2023-03-18T15:16:20.878Z,100617.06
2023-03-18T15:18:55.062Z,100633.70
2023-03-18T15:21:30.221Z,100626.81
2023-03-18T15:24:03.598Z,100630.37
2023-03-18T15:26:37.160Z,100628.68
2023-03-18T15:29:25.314Z,100625.28
2023-03-18T15:32:10.503Z,100624.47
2023-03-18T15:34:43.480Z,100620.19
2023-03-18T15:37:40.910Z,100628.97
2023-03-18T15:40:29.868Z,100621.19
2023-03-18T15:43:03.752Z,100625.59
2023-03-18T15:45:33.912Z,100626.51
2023-03-18T15:48:08.216Z,100625.69
2023-03-18T15:50:53.485Z,100633.59
2023-03-18T15:53:24.103Z,100631.91
2023-03-18T15:55:55.268Z,100633.70
2023-03-18T15:58:27.908Z,100631.11
2023-03-18T16:00:57.745Z,100628.53
2023-03-18T16:03:30.822Z,100632.08
2023-03-18T16:06:01.448Z,100629.49
2023-03-18T16:08:31.115Z,100633.03
2023-03-18T16:11:03.844Z,100637.43
2023-03-18T16:13:35.129Z,100627.03
2023-03-18T16:16:05.144Z,100632.34
2023-03-18T16:18:34.434Z,100635.02
2023-03-18T16:21:03.991Z,100640.29
2023-03-18T16:23:32.890Z,100643.83
2023-03-18T16:26:02.601Z,100645.59
2023-03-18T16:28:32.202Z,100651.71
2023-03-18T16:31:01.588Z,100653.48
2023-03-18T16:33:30.881Z,100653.52
2023-03-18T16:36:03.370Z,100655.31
2023-03-18T16:38:34.294Z,100662.30
2023-03-18T16:41:04.981Z,100656.27
2023-03-18T16:43:33.976Z,100661.52
2023-03-18T16:46:05.237Z,100663.28
2023-03-18T16:48:36.338Z,100655.50
2023-03-18T16:51:06.131Z,100652.93
2023-03-18T16:53:35.559Z,100659.06
2023-03-18T16:56:17.665Z,100654.75
2023-03-18T16:58:47.174Z,100658.27
2023-03-18T17:01:19.417Z,100659.17
2023-03-18T17:03:49.318Z,100657.44
2023-03-18T17:06:18.704Z,100663.53
2023-03-18T17:08:47.743Z,100660.11
2023-03-18T17:11:18.835Z,100665.32
2023-03-18T17:13:48.729Z,100673.16
2023-03-18T17:16:20.246Z,100670.56
2023-03-18T17:18:49.751Z,100673.20
2023-03-18T17:21:19.157Z,100669.72
2023-03-18T17:23:48.464Z,100672.36
2023-03-18T17:26:18.573Z,100674.09
2023-03-18T17:28:50.299Z,100681.94
2023-03-18T17:31:20.562Z,100675.88
2023-03-18T17:33:49.979Z,100681.09
2023-03-18T17:36:20.240Z,100684.56
2023-03-18T17:38:56.081Z,100688.06
2023-03-18T17:41:25.401Z,100681.11
2023-03-18T17:43:54.646Z,100682.00
2023-03-18T17:46:24.663Z,100682.88
2023-03-18T17:48:54.746Z,100686.35
2023-03-18T17:51:28.859Z,100683.75
2023-03-18T17:54:00.769Z,100675.09
2023-03-18T17:56:30.369Z,100683.78
2023-03-18T17:59:00.003Z,100682.05
2023-03-18T18:01:31.752Z,100682.04
2023-03-18T18:04:02.406Z,100676.84
2023-03-18T18:06:34.440Z,100678.58
2023-03-18T18:09:05.379Z,100674.26
2023-03-18T18:11:38.341Z,100675.14
2023-03-18T18:14:20.469Z,100665.58
2023-03-18T18:16:53.327Z,100669.92
2023-03-18T18:19:22.832Z,100663.00
2023-03-18T18:21:55.578Z,100659.55
2023-03-18T18:24:35.927Z,100656.95
2023-03-18T18:27:05.898Z,100663.86
2023-03-18T18:29:35.738Z,100661.30
2023-03-18T18:32:05.687Z,100663.00
2023-03-18T18:34:35.762Z,100664.71
2023-03-18T18:37:04.873Z,100663.87
2023-03-18T18:39:37.791Z,100660.41
2023-03-18T18:42:08.213Z,100658.67
2023-03-18T18:44:38.290Z,100668.20
2023-03-18T18:47:18.874Z,100668.19
2023-03-18T18:49:48.160Z,100668.20
2023-03-18T18:52:17.656Z,100669.06
2023-03-18T18:54:46.605Z,100668.20
2023-03-18T18:57:29.574Z,100676.88
2023-03-18T18:59:59.673Z,100672.52
2023-03-18T19:02:33.274Z,100670.80
2023-03-18T19:05:04.244Z,100663.84
2023-03-18T19:07:34.491Z,100667.31
2023-03-18T19:10:04.267Z,100678.57
2023-03-18T19:12:33.265Z,100668.20
2023-03-18T19:15:03.468Z,100675.98
2023-03-18T19:17:33.104Z,100666.45
2023-03-18T19:20:04.429Z,100672.52
2023-03-18T19:22:33.328Z,100671.64
2023-03-18T19:25:04.481Z,100669.03
2023-03-18T19:27:33.491Z,100673.34
2023-03-18T19:30:16.772Z,100667.27
2023-03-18T19:32:45.880Z,100677.69
2023-03-18T19:35:15.309Z,100678.52
2023-03-18T19:37:47.266Z,100680.28
2023-03-18T19:40:29.973Z,100687.20
2023-03-18T19:43:02.272Z,100681.98
2023-03-18T19:45:31.903Z,100672.45
2023-03-18T19:48:01.360Z,100686.31
2023-03-18T19:50:31.171Z,100681.09
2023-03-18T19:53:00.987Z,100682.81
2023-03-18T19:55:32.518Z,100675.89
2023-03-18T19:58:02.263Z,100679.35
2023-03-18T20:00:32.103Z,100681.07
2023-03-18T20:03:01.288Z,100674.14
2023-03-18T20:05:32.679Z,100677.59
2023-03-18T20:08:01.921Z,100675.00
2023-03-18T20:10:33.456Z,100675.86
2023-03-18T20:13:03.019Z,100678.47
2023-03-18T20:15:33.129Z,100675.85
2023-03-18T20:18:03.852Z,100673.23
2023-03-18T20:20:34.351Z,100668.05
2023-03-18T20:23:06.411Z,100670.61
2023-03-18T20:25:40.744Z,100667.17
2023-03-18T20:28:15.904Z,100668.00
2023-03-18T20:30:46.440Z,100673.20
2023-03-18T20:33:15.462Z,100664.54
2023-03-18T20:35:47.580Z,100664.52
2023-03-18T20:38:22.490Z,100670.58
2023-03-18T20:40:52.712Z,100675.74
2023-03-18T20:43:30.337Z,100667.08
2023-03-18T20:46:01.983Z,100667.91
2023-03-18T20:48:32.337Z,100670.48
2023-03-18T20:51:02.098Z,100674.80
2023-03-18T20:53:33.183Z,100670.45
2023-03-18T20:56:02.262Z,100671.31
2023-03-18T20:58:31.175Z,100672.14
2023-03-18T21:01:01.486Z,100676.45
2023-03-18T21:03:33.026Z,100672.97
2023-03-18T21:06:04.706Z,100673.80
2023-03-18T21:08:34.187Z,100682.41
2023-03-18T21:11:04.134Z,100671.15
2023-03-18T21:13:35.477Z,100672.01
2023-03-18T21:16:07.702Z,100673.72
2023-03-18T21:18:37.530Z,100672.84
2023-03-18T21:21:06.965Z,100670.21
2023-03-18T21:23:36.320Z,100672.81
2023-03-18T21:26:05.788Z,100672.77
2023-03-18T21:28:37.382Z,100671.89
2023-03-18T21:31:22.204Z,100670.15
2023-03-18T21:33:52.604Z,100672.71
2023-03-18T21:36:22.311Z,100669.23
2023-03-18T21:38:51.378Z,100668.34
2023-03-18T21:41:26.546Z,100676.98
2023-03-18T21:43:56.715Z,100674.36
2023-03-18T21:46:36.662Z,100671.73
2023-03-18T21:49:05.729Z,100671.69
2023-03-18T21:51:39.558Z,100662.17
2023-03-18T21:54:17.313Z,100666.47
2023-03-18T21:56:46.453Z,100666.44
2023-03-18T21:59:15.398Z,100664.66
2023-03-18T22:01:45.729Z,100668.95
2023-03-18T22:04:16.187Z,100661.14
2023-03-18T22:06:45.321Z,100664.58
2023-03-18T22:09:14.333Z,100667.98
2023-03-18T22:11:43.575Z,100665.36
2023-03-18T22:14:14.281Z,100668.80
2023-03-18T22:16:43.518Z,100666.17
2023-03-18T22:19:12.589Z,100663.50
2023-03-18T22:21:42.012Z,100668.67
2023-03-18T22:24:14.637Z,100672.08
2023-03-18T22:26:43.732Z,100666.89
2023-03-18T22:29:12.621Z,100667.73
2023-03-18T22:31:42.661Z,100672.88
2023-03-18T22:34:21.909Z,100676.32
2023-03-18T22:36:54.428Z,100671.09
2023-03-18T22:39:23.314Z,100678.01
2023-03-18T22:41:54.136Z,100678.82
2023-03-18T22:44:24.061Z,100673.63
2023-03-18T22:46:54.969Z,100675.33
2023-03-18T22:49:26.925Z,100673.55
2023-03-18T22:52:01.445Z,100679.56
2023-03-18T22:54:32.784Z,100676.09
2023-03-18T22:57:04.909Z,100670.02
2023-03-18T22:59:34.449Z,100671.70
2023-03-18T23:02:04.444Z,100670.81
2023-03-18T23:04:34.794Z,100672.50
2023-03-18T23:07:05.671Z,100674.20
2023-03-18T23:09:44.231Z,100671.59
2023-03-18T23:12:19.639Z,100673.25
2023-03-18T23:14:48.816Z,100666.33
2023-03-18T23:17:20.832Z,100676.67
2023-03-18T23:19:50.761Z,100670.59
2023-03-18T23:22:24.254Z,100668.81
2023-03-18T23:24:54.225Z,100673.12
2023-03-18T23:27:24.909Z,100675.66
2023-03-18T23:29:54.514Z,100675.61
2023-03-18T23:32:25.996Z,100676.45
2023-03-18T23:34:54.800Z,100677.25
2023-03-18T23:37:23.931Z,100672.91
2023-03-18T23:39:52.877Z,100672.86
2023-03-18T23:42:22.193Z,100665.92
2023-03-18T23:44:51.136Z,100661.55
2023-03-18T23:47:21.100Z,100664.98
2023-03-18T23:49:50.150Z,100664.07
2023-03-18T23:52:19.027Z,100664.02
2023-03-18T23:54:48.233Z,100666.55
2023-03-18T23:57:17.528Z,100664.80
2023-03-18T23:59:46.732Z,100659.58
